Normandy, TN (37360)

2:18 AM CST on December 04, 2016 (GMT -0600)
Tullahoma TN - Wilson Avenue | | Change Station

Elev 1070 ft 35.36 °N, 86.24 °W | Updated 19 seconds ago

Rain
Rain
41.4 °F
Feels Like 41 °F
N
0.0
Wind Variable Wind from NNE
Gusts 0.0 mph

Today
High -- | Low -- °F
--% Chance of Precip.
Yesterday
High -- | Low -- °F
Precip. -- in
Pressure 30.15 in
Visibility 4.0 miles
Clouds Few 800 ft
Mostly Cloudy 1600 ft
Overcast 2200 ft
Windchill 41 °F
Dew Point 41 °F
Humidity 99%
Rainfall 0.22 in
Snow Depth Not available.
6:38 AM 4:32 PM
Waxing Crescent, 21% visible
METAR KTHA 040815Z AUTO 00000KT 4SM FEW008 BKN016 OVC022 04/04 A3015 RMK
Pressure 30.15 in
Visibility 4.0 miles
Clouds Few 800 ft
Mostly Cloudy 1600 ft
Overcast 2200 ft
Windchill 41 °F
Dew Point 41 °F
Humidity 99%
Rainfall 0.22 in
Snow Depth Not available.
6:38 AM 4:32 PM
Waxing Crescent, 21% visible
METAR KTHA 040815Z AUTO 00000KT 4SM FEW008 BKN016 OVC022 04/04 A3015 RMK

10-Day Weather Forecast

Almanac

Astronomy

Dec. 04, 2016 Rise Set
Actual Time
Civil Twilight
Nautical Twilight
Astronomical Twilight
Moon
Length of Visible Light
Length of Day
Tomorrow will be .
, % of the Moon is Illuminated

Today's Extremes

State Highs State Lows

Community

WunderPhotos

Upload Photos

1,955,587 photos uploaded!

WunderBlog® & News

Nearby

Air Quality

  Air Quality AQ Index Pollutant
Not available.

Snow Depth

Station Depth Elevation

Earthquake Activity

City Distance Mag. Time & Date
Minimum magnitude displayed is 2.5.

Coastal Water Temperatures

Place Temperature

Stations

Nearby Weather Stations

Station Location Temp. Windchill Dew Point Humidity Wind Precip. Elev Updated Type
                   

Watches & Warnings

There are currently no watches in effect.